Time;durP1;ratioP1;P1;durP2;ratioP2;P2;SDS_P1;SDS_P2;PMS_P1;PMS_P2;Temp;Humidity;BMP_temperature;BMP_pressure;BME280_temperature;BME280_humidity;BME280_pressure;Samples;Min_cycle;Max_cycle;Signal;HPM_P1;HPM_P2
2022/05/21 00:00:17;;;;;;;0.00;0.00;;;11.80;99.90;;;;;;5013170;28;20045;-66
2022/05/21 00:02:43;;;;;;;0.20;0.20;;;11.80;99.90;;;;;;5010020;28;20058;-66
2022/05/21 00:05:09;;;;;;;0.10;0.10;;;11.90;99.90;;;;;;5018254;28;20060;-66
2022/05/21 00:07:35;;;;;;;1.52;1.42;;;12.00;99.90;;;;;;5008439;28;20046;-66
2022/05/21 00:10:01;;;;;;;0.10;0.10;;;12.10;99.90;;;;;;5008121;28;20038;-66
2022/05/21 00:12:27;;;;;;;0.20;0.20;;;12.10;99.90;;;;;;5004470;28;20057;-66
2022/05/21 00:14:53;;;;;;;0.25;0.20;;;12.20;99.90;;;;;;5015402;28;20046;-66
2022/05/21 00:17:19;;;;;;;0.10;0.10;;;12.20;99.90;;;;;;5010652;28;20125;-67
2022/05/21 00:19:45;;;;;;;0.25;0.25;;;12.30;99.90;;;;;;5006455;28;20560;-66
2022/05/21 00:22:10;;;;;;;1.13;1.05;;;12.30;99.90;;;;;;5011253;28;20045;-65
2022/05/21 00:24:36;;;;;;;0.10;0.10;;;12.40;99.90;;;;;;5018007;28;20085;-65
2022/05/21 00:27:02;;;;;;;0.30;0.30;;;12.40;99.90;;;;;;5019612;28;20057;-65
2022/05/21 00:29:28;;;;;;;0.10;0.10;;;12.50;99.90;;;;;;5008721;28;20046;-66
2022/05/21 00:31:54;;;;;;;0.00;0.00;;;12.50;99.90;;;;;;5023390;28;20057;-65
2022/05/21 00:34:20;;;;;;;0.20;0.20;;;12.60;99.90;;;;;;5019629;28;20034;-66
2022/05/21 00:36:46;;;;;;;0.40;0.40;;;12.60;99.90;;;;;;5015280;28;20034;-66
2022/05/21 00:39:11;;;;;;;0.10;0.10;;;12.70;99.90;;;;;;5013865;28;20045;-66
2022/05/21 00:41:39;;;;;;;0.13;0.13;;;12.70;99.90;;;;;;5018562;28;20042;-67
2022/05/21 00:44:05;;;;;;;0.22;0.22;;;12.80;99.90;;;;;;5027016;28;20404;-66
2022/05/21 00:46:34;;;;;;;0.10;0.10;;;12.80;99.90;;;;;;5023770;28;20029;-68
2022/05/21 00:49:19;;;;;;;13.73;0.90;;;12.90;99.90;;;;;;5011377;28;20034;-67
2022/05/21 00:51:56;;;;;;;0.30;0.30;;;12.90;99.90;;;;;;5010404;28;20046;-66
2022/05/21 00:54:27;;;;;;;1.08;0.52;;;12.90;99.90;;;;;;5010857;28;20073;-66
2022/05/21 00:57:05;;;;;;;0.20;0.20;;;13.00;99.90;;;;;;5025824;28;20041;-66
2022/05/21 00:59:49;;;;;;;0.82;0.80;;;13.10;99.90;;;;;;5016514;28;20524;-67
2022/05/21 01:02:17;;;;;;;0.80;0.80;;;13.10;99.90;;;;;;5009512;28;20057;-67
2022/05/21 01:04:44;;;;;;;0.10;0.10;;;13.10;99.90;;;;;;5017448;28;20045;-67
2022/05/21 01:07:11;;;;;;;0.10;0.10;;;13.10;99.90;;;;;;5013305;28;20041;-67
2022/05/21 01:09:39;;;;;;;0.13;0.13;;;13.20;99.90;;;;;;5011796;28;20127;-67
2022/05/21 01:12:08;;;;;;;0.15;0.15;;;13.20;99.90;;;;;;5023966;28;20049;-66
2022/05/21 01:14:36;;;;;;;0.43;0.43;;;13.10;99.90;;;;;;5022436;28;20053;-66
2022/05/21 01:17:03;;;;;;;0.10;0.10;;;13.20;99.90;;;;;;5015362;28;20477;-67
2022/05/21 01:19:29;;;;;;;0.63;0.63;;;13.10;99.90;;;;;;5016884;28;20123;-67
2022/05/21 01:21:55;;;;;;;0.10;0.10;;;13.20;99.90;;;;;;5018448;28;20074;-66
2022/05/21 01:24:21;;;;;;;0.52;0.52;;;13.20;99.90;;;;;;5010382;28;20304;-66
2022/05/21 01:26:47;;;;;;;0.75;0.75;;;13.20;99.90;;;;;;5018499;28;20050;-66
2022/05/21 01:29:19;;;;;;;0.28;0.28;;;13.20;99.90;;;;;;5022402;28;20120;-66
2022/05/21 01:31:52;;;;;;;0.17;0.17;;;13.20;99.90;;;;;;5017701;28;20042;-66
2022/05/21 01:34:19;;;;;;;0.90;0.90;;;13.20;99.90;;;;;;5011270;28;20060;-66
2022/05/21 01:36:46;;;;;;;0.50;0.50;;;13.20;99.90;;;;;;5019300;28;20049;-66
2022/05/21 01:39:12;;;;;;;0.20;0.20;;;13.20;99.90;;;;;;5018915;28;20066;-67
2022/05/21 01:41:41;;;;;;;0.13;0.13;;;13.20;99.90;;;;;;5010025;28;20045;-67
2022/05/21 01:46:51;;;;;;;0.20;0.20;;;13.20;99.90;;;;;;5022427;28;20045;-66
2022/05/21 01:49:16;;;;;;;2.50;0.80;;;13.20;99.90;;;;;;5019502;28;20395;-67
2022/05/21 01:51:42;;;;;;;0.93;0.85;;;13.30;99.90;;;;;;5020828;28;20042;-66
2022/05/21 01:54:07;;;;;;;0.00;0.00;;;13.30;99.90;;;;;;5011611;28;20508;-67
2022/05/21 01:56:33;;;;;;;0.10;0.10;;;13.30;99.90;;;;;;5018074;28;20085;-67
2022/05/21 01:58:59;;;;;;;2.80;1.35;;;13.30;99.90;;;;;;5015133;28;20640;-67
2022/05/21 02:01:25;;;;;;;0.10;0.10;;;13.30;99.90;;;;;;5016840;28;20111;-67
2022/05/21 02:03:50;;;;;;;0.10;0.10;;;13.30;99.90;;;;;;5013184;28;20049;-67
2022/05/21 02:06:16;;;;;;;0.10;0.10;;;13.30;99.90;;;;;;5029086;28;20049;-67
2022/05/21 02:08:42;;;;;;;0.10;0.10;;;13.40;99.90;;;;;;5026452;28;20110;-67
2022/05/21 02:11:07;;;;;;;1.02;0.95;;;13.40;99.90;;;;;;5015878;28;20045;-67
2022/05/21 02:13:35;;;;;;;0.05;0.05;;;13.40;99.90;;;;;;5026706;28;20056;-67
2022/05/21 02:16:01;;;;;;;1.42;1.27;;;13.40;99.90;;;;;;5011823;28;20061;-67
2022/05/21 02:18:27;;;;;;;0.10;0.10;;;13.50;99.90;;;;;;5014310;28;20547;-67
2022/05/21 02:20:54;;;;;;;0.30;0.30;;;13.40;99.90;;;;;;5015936;28;20049;-67
2022/05/21 02:23:20;;;;;;;0.68;0.68;;;13.40;99.90;;;;;;5017435;28;20058;-67
2022/05/21 02:25:46;;;;;;;0.75;0.75;;;13.40;99.90;;;;;;5015256;28;20037;-67
2022/05/21 02:28:15;;;;;;;8.27;3.10;;;13.50;99.90;;;;;;5024016;28;20660;-67
2022/05/21 02:30:42;;;;;;;0.10;0.10;;;13.50;99.90;;;;;;5013009;28;20037;-68
2022/05/21 02:33:08;;;;;;;1.88;1.55;;;13.50;99.90;;;;;;5011616;28;20088;-67
2022/05/21 02:35:34;;;;;;;0.08;0.08;;;13.50;99.90;;;;;;5014604;28;20042;-67
2022/05/21 02:40:45;;;;;;;0.75;0.45;;;13.50;99.90;;;;;;5018004;28;20057;-68
2022/05/21 02:43:10;;;;;;;0.10;0.10;;;13.50;99.90;;;;;;5014423;28;20049;-67
2022/05/21 02:45:36;;;;;;;0.52;0.52;;;13.50;99.90;;;;;;5007259;28;20092;-67
2022/05/21 02:48:01;;;;;;;0.20;0.20;;;13.60;99.90;;;;;;5009745;28;20056;-68
2022/05/21 02:50:32;;;;;;;0.90;0.90;;;13.60;99.90;;;;;;5009851;28;20052;-68
2022/05/21 02:52:58;;;;;;;1.55;0.93;;;13.50;99.90;;;;;;5009241;28;21011;-69
2022/05/21 02:55:24;;;;;;;0.13;0.13;;;13.50;99.90;;;;;;5010902;28;20048;-67
2022/05/21 02:57:50;;;;;;;0.10;0.10;;;13.60;99.90;;;;;;5022672;28;20037;-67
2022/05/21 03:00:19;;;;;;;0.20;0.20;;;13.60;99.90;;;;;;5021675;28;20046;-67
2022/05/21 03:02:45;;;;;;;0.10;0.10;;;13.50;99.90;;;;;;5016411;28;20068;-67
2022/05/21 03:05:11;;;;;;;0.05;0.05;;;13.50;99.90;;;;;;5009996;28;20068;-68
2022/05/21 03:07:38;;;;;;;0.10;0.10;;;13.50;99.90;;;;;;5007670;28;20127;-68
2022/05/21 03:10:23;;;;;;;0.10;0.10;;;13.50;99.90;;;;;;5009459;28;20053;-68
2022/05/21 03:12:51;;;;;;;0.10;0.10;;;13.50;99.90;;;;;;5006232;28;20104;-68
2022/05/21 03:15:19;;;;;;;0.10;0.10;;;13.50;99.90;;;;;;5011379;28;20130;-68
2022/05/21 03:17:46;;;;;;;0.40;0.40;;;13.50;99.90;;;;;;5016580;28;20037;-67
2022/05/21 03:20:13;;;;;;;0.03;0.03;;;13.50;99.90;;;;;;5017302;28;20042;-68
2022/05/21 03:22:40;;;;;;;0.08;0.08;;;13.50;99.90;;;;;;5014522;28;20041;-68
2022/05/21 03:25:07;;;;;;;0.17;0.17;;;13.40;99.90;;;;;;5021833;28;20091;-67
2022/05/21 03:27:32;;;;;;;0.10;0.10;;;13.40;99.90;;;;;;5012860;28;20099;-67
2022/05/21 03:29:58;;;;;;;0.20;0.20;;;13.40;99.90;;;;;;5008364;28;20491;-68
2022/05/21 03:32:23;;;;;;;1.98;1.48;;;13.40;99.90;;;;;;5011201;28;20041;-68
2022/05/21 03:34:49;;;;;;;3.40;2.55;;;13.40;99.90;;;;;;5007884;28;20072;-67
2022/05/21 03:37:14;;;;;;;0.05;0.05;;;13.40;99.90;;;;;;5012131;28;20041;-67
2022/05/21 03:39:40;;;;;;;0.38;0.38;;;13.40;99.90;;;;;;5014991;28;20046;-67
2022/05/21 03:42:06;;;;;;;0.00;0.00;;;13.40;99.90;;;;;;5007917;28;20398;-68
2022/05/21 03:44:31;;;;;;;0.03;0.03;;;13.40;99.90;;;;;;5011459;28;20054;-68
2022/05/21 03:46:58;;;;;;;0.30;0.30;;;13.40;99.90;;;;;;5007712;28;20553;-67
2022/05/21 03:49:26;;;;;;;0.10;0.10;;;13.30;99.90;;;;;;5007654;28;20497;-68
2022/05/21 03:51:52;;;;;;;0.10;0.10;;;13.40;99.90;;;;;;5008101;28;20053;-68
2022/05/21 03:54:18;;;;;;;0.85;0.85;;;13.40;99.90;;;;;;5013964;28;20045;-68
2022/05/21 03:56:43;;;;;;;0.15;0.15;;;13.40;99.90;;;;;;5011635;28;20065;-68
2022/05/21 03:59:09;;;;;;;0.73;0.73;;;13.40;99.90;;;;;;5019155;28;20406;-68
2022/05/21 04:01:35;;;;;;;0.00;0.00;;;13.40;99.90;;;;;;5020878;28;20682;-68
2022/05/21 04:04:00;;;;;;;0.10;0.10;;;13.40;99.90;;;;;;5010030;28;20077;-68
2022/05/21 04:06:26;;;;;;;0.00;0.00;;;13.40;99.90;;;;;;5008482;28;20037;-68
2022/05/21 04:08:52;;;;;;;0.00;0.00;;;13.40;99.90;;;;;;5008191;28;20586;-68
2022/05/21 04:11:18;;;;;;;0.77;0.77;;;13.30;99.90;;;;;;5007571;28;20085;-68
2022/05/21 04:13:44;;;;;;;0.55;0.55;;;13.30;99.90;;;;;;5009027;28;20634;-68
2022/05/21 04:16:09;;;;;;;0.38;0.38;;;13.30;99.90;;;;;;5019177;28;20045;-68
2022/05/21 04:18:35;;;;;;;2.38;1.45;;;13.30;99.90;;;;;;5012799;28;20104;-68
2022/05/21 04:21:01;;;;;;;1.05;0.95;;;13.30;99.90;;;;;;5009471;28;20053;-68
2022/05/21 04:23:26;;;;;;;0.10;0.10;;;13.30;99.90;;;;;;5009745;28;20053;-68
2022/05/21 04:25:52;;;;;;;4.78;3.00;;;13.20;99.90;;;;;;5015270;28;20168;-68
2022/05/21 04:28:18;;;;;;;0.20;0.20;;;13.30;99.90;;;;;;5019864;28;20053;-67
2022/05/21 04:30:43;;;;;;;0.05;0.05;;;13.20;99.90;;;;;;5023891;28;20042;-68
2022/05/21 04:33:09;;;;;;;0.10;0.10;;;13.20;99.90;;;;;;5026228;28;20052;-68
2022/05/21 04:38:19;;;;;;;0.15;0.13;;;13.20;99.90;;;;;;5015293;28;20050;-68
2022/05/21 04:40:44;;;;;;;0.28;0.28;;;13.20;99.90;;;;;;5010082;28;20041;-68
2022/05/21 04:43:10;;;;;;;0.03;0.03;;;13.30;99.90;;;;;;5018776;28;20095;-68
2022/05/21 04:45:36;;;;;;;0.10;0.10;;;13.30;99.90;;;;;;5014282;28;20041;-68
2022/05/21 04:48:06;;;;;;;1.52;0.50;;;13.30;99.90;;;;;;5025611;28;20477;-68
2022/05/21 04:50:36;;;;;;;0.38;0.32;;;13.20;99.90;;;;;;5028197;28;20042;-67
2022/05/21 04:53:02;;;;;;;0.10;0.10;;;13.30;99.90;;;;;;5017193;28;20140;-68
2022/05/21 04:55:27;;;;;;;1.20;1.15;;;13.30;99.90;;;;;;5012896;28;20263;-68
2022/05/21 04:57:53;;;;;;;1.75;1.35;;;13.30;99.90;;;;;;5014664;28;20795;-68
2022/05/21 05:00:18;;;;;;;0.05;0.05;;;13.30;99.90;;;;;;5013508;28;20321;-67
2022/05/21 05:02:44;;;;;;;0.40;0.40;;;13.30;99.90;;;;;;5011228;28;20685;-68
2022/05/21 05:05:11;;;;;;;2.53;2.13;;;13.30;99.90;;;;;;5009863;28;20050;-68
2022/05/21 05:07:40;;;;;;;0.10;0.10;;;13.40;99.90;;;;;;5021543;28;20050;-68
2022/05/21 05:10:07;;;;;;;0.15;0.15;;;13.40;99.90;;;;;;5017961;28;20042;-68
2022/05/21 05:12:33;;;;;;;0.00;0.00;;;13.50;99.90;;;;;;5015813;28;20439;-68
2022/05/21 05:14:59;;;;;;;0.00;0.00;;;13.50;99.90;;;;;;5023438;28;20046;-68
2022/05/21 05:17:25;;;;;;;0.15;0.15;;;13.50;99.90;;;;;;5009016;28;20042;-67
2022/05/21 05:19:54;;;;;;;0.10;0.10;;;13.50;99.90;;;;;;5008986;28;20053;-68
2022/05/21 05:22:20;;;;;;;0.10;0.10;;;13.50;99.90;;;;;;5007347;28;20541;-67
2022/05/21 05:24:46;;;;;;;0.22;0.22;;;13.50;99.90;;;;;;5014774;28;20054;-68
2022/05/21 05:27:11;;;;;;;1.13;1.02;;;13.50;99.90;;;;;;5015408;28;20053;-68
2022/05/21 05:29:37;;;;;;;0.05;0.05;;;13.50;99.90;;;;;;5011155;28;20054;-67
2022/05/21 05:32:03;;;;;;;0.10;0.10;;;13.50;99.90;;;;;;5011308;28;20560;-68
2022/05/21 05:34:29;;;;;;;5.00;1.02;;;13.60;99.90;;;;;;5010343;28;20401;-68
2022/05/21 05:36:54;;;;;;;0.10;0.10;;;13.50;99.90;;;;;;5012455;28;20045;-68
2022/05/21 05:39:21;;;;;;;0.05;0.05;;;13.50;99.90;;;;;;5029721;28;20046;-68
2022/05/21 05:41:47;;;;;;;0.20;0.20;;;13.60;99.90;;;;;;5028740;28;20053;-68
2022/05/21 05:44:13;;;;;;;0.00;0.00;;;13.60;99.90;;;;;;5010342;28;20049;-68
2022/05/21 05:46:38;;;;;;;0.00;0.00;;;13.60;99.90;;;;;;5018688;28;20048;-68
2022/05/21 05:49:04;;;;;;;0.03;0.03;;;13.70;99.90;;;;;;5023272;28;20083;-68
2022/05/21 05:51:30;;;;;;;0.47;0.47;;;13.70;99.90;;;;;;5018079;28;20049;-68
2022/05/21 05:53:55;;;;;;;19.95;0.82;;;13.70;99.90;;;;;;5023233;28;20556;-67
2022/05/21 05:56:21;;;;;;;0.10;0.10;;;13.60;99.90;;;;;;5014100;28;20060;-68
2022/05/21 06:01:48;;;;;;;0.32;0.32;;;13.60;99.90;;;;;;5041710;28;20617;-69
2022/05/21 06:04:14;;;;;;;7.68;1.65;;;13.70;99.90;;;;;;5017894;28;20062;-68
2022/05/21 06:06:39;;;;;;;0.32;0.32;;;13.70;99.90;;;;;;5009954;28;20045;-68
2022/05/21 06:09:05;;;;;;;0.10;0.10;;;13.70;99.90;;;;;;5010978;28;20050;-68
2022/05/21 06:11:37;;;;;;;4.18;1.30;;;13.70;99.90;;;;;;5015064;28;20037;-68
2022/05/21 06:14:04;;;;;;;1.05;1.05;;;13.80;99.90;;;;;;5011820;28;20136;-68
2022/05/21 06:16:29;;;;;;;0.08;0.08;;;13.80;99.90;;;;;;5009719;28;20046;-68
2022/05/21 06:18:55;;;;;;;1.85;1.48;;;13.80;99.90;;;;;;5018297;28;20067;-68
2022/05/21 06:21:20;;;;;;;0.00;0.00;;;13.80;99.90;;;;;;5013371;28;20046;-68
2022/05/21 06:23:46;;;;;;;0.45;0.45;;;13.90;99.90;;;;;;5014141;28;21043;-69
2022/05/21 06:26:13;;;;;;;1.17;0.63;;;13.90;99.90;;;;;;5022619;28;20041;-68
2022/05/21 06:28:39;;;;;;;4.28;1.30;;;13.90;99.90;;;;;;5022538;28;20041;-68
2022/05/21 06:31:04;;;;;;;0.80;0.80;;;14.00;99.90;;;;;;5009164;28;20049;-68
2022/05/21 06:33:31;;;;;;;0.20;0.20;;;14.00;99.90;;;;;;5017338;28;20042;-67
2022/05/21 06:36:14;;;;;;;0.10;0.10;;;14.00;99.90;;;;;;5023384;28;20064;-69
2022/05/21 06:38:41;;;;;;;1.75;0.80;;;14.00;99.90;;;;;;5020371;28;20041;-69
2022/05/21 06:41:07;;;;;;;7.43;1.08;;;14.00;99.90;;;;;;5018718;28;20052;-69
2022/05/21 06:43:33;;;;;;;2.33;1.45;;;14.10;99.90;;;;;;5022752;28;20060;-67
2022/05/21 06:45:59;;;;;;;4.57;2.10;;;14.10;99.90;;;;;;5027839;28;20049;-68
2022/05/21 06:48:25;;;;;;;0.38;0.38;;;14.10;99.90;;;;;;5015814;28;20100;-69
2022/05/21 06:50:50;;;;;;;0.10;0.10;;;14.10;99.90;;;;;;5008224;28;20049;-69
2022/05/21 06:53:16;;;;;;;2.35;1.40;;;14.20;99.90;;;;;;5011452;28;20176;-68
2022/05/21 06:55:41;;;;;;;1.35;0.80;;;14.20;99.90;;;;;;5012215;28;20041;-67
2022/05/21 06:58:07;;;;;;;1.67;1.00;;;14.20;99.90;;;;;;5028545;28;20427;-67
2022/05/21 07:00:33;;;;;;;2.17;0.85;;;14.30;99.90;;;;;;5025740;28;20559;-68
2022/05/21 07:02:58;;;;;;;0.10;0.10;;;14.20;99.90;;;;;;5020548;28;20117;-67
2022/05/21 07:08:19;;;;;;;3.80;1.13;;;14.30;99.90;;;;;;5021965;28;20497;-67
2022/05/21 07:10:45;;;;;;;0.20;0.20;;;14.40;99.90;;;;;;5024168;28;20045;-68
2022/05/21 07:13:11;;;;;;;0.20;0.20;;;14.40;99.90;;;;;;5025618;28;20525;-68
2022/05/21 07:15:39;;;;;;;2.83;1.45;;;14.40;99.90;;;;;;5028943;28;20049;-67
2022/05/21 07:18:05;;;;;;;1.75;0.85;;;14.40;99.90;;;;;;5036345;28;20473;-66
2022/05/21 07:20:31;;;;;;;0.00;0.00;;;14.40;99.90;;;;;;5022527;28;20045;-67
2022/05/21 07:22:57;;;;;;;0.00;0.00;;;14.50;99.90;;;;;;5020616;28;20049;-68
2022/05/21 07:25:26;;;;;;;0.10;0.10;;;14.50;99.90;;;;;;5028055;28;20041;-68
2022/05/21 07:27:52;;;;;;;0.95;0.95;;;14.60;99.90;;;;;;5014255;28;20044;-68
2022/05/21 07:30:19;;;;;;;0.10;0.10;;;14.60;99.90;;;;;;5015084;28;20424;-68
2022/05/21 07:32:45;;;;;;;0.30;0.30;;;14.60;99.90;;;;;;5026449;28;20052;-67
2022/05/21 07:35:13;;;;;;;0.00;0.00;;;14.60;99.90;;;;;;5018522;28;20049;-67
2022/05/21 07:37:40;;;;;;;9.32;1.55;;;14.70;99.90;;;;;;5022512;28;20050;-68
2022/05/21 07:40:07;;;;;;;0.32;0.32;;;14.80;99.90;;;;;;5028230;28;20049;-67
2022/05/21 07:42:32;;;;;;;0.40;0.40;;;14.80;99.90;;;;;;5007588;28;20050;-68
2022/05/21 07:44:58;;;;;;;0.17;0.17;;;14.80;99.90;;;;;;5006629;28;20206;-68
2022/05/21 07:47:24;;;;;;;0.20;0.20;;;14.90;99.90;;;;;;5012702;28;20444;-68
2022/05/21 07:49:56;;;;;;;4.28;0.73;;;15.00;99.90;;;;;;5007345;28;20410;-68
2022/05/21 07:52:26;;;;;;;0.25;0.25;;;15.00;99.90;;;;;;5015326;28;20088;-67
2022/05/21 07:54:53;;;;;;;0.30;0.30;;;15.00;99.90;;;;;;5019887;28;20156;-68
2022/05/21 07:57:18;;;;;;;0.47;0.47;;;15.00;99.90;;;;;;5023127;28;20052;-68
2022/05/21 07:59:44;;;;;;;1.10;1.00;;;15.00;99.90;;;;;;5008662;28;20461;-68
2022/05/21 08:02:13;;;;;;;0.00;0.00;;;15.00;99.90;;;;;;5019097;28;20420;-67
2022/05/21 08:04:39;;;;;;;0.00;0.00;;;15.00;99.90;;;;;;5019650;28;20859;-67
2022/05/21 08:07:04;;;;;;;0.70;0.52;;;15.10;99.90;;;;;;5019067;28;20033;-67
2022/05/21 08:09:30;;;;;;;0.70;0.70;;;15.20;99.90;;;;;;5016175;28;20414;-68
2022/05/21 08:11:56;;;;;;;0.45;0.45;;;15.10;99.90;;;;;;5009055;28;20092;-68
2022/05/21 08:14:23;;;;;;;0.03;0.03;;;15.20;99.90;;;;;;5025999;28;20378;-68
2022/05/21 08:16:49;;;;;;;0.98;0.80;;;15.20;99.90;;;;;;5012385;28;20132;-68
2022/05/21 08:19:15;;;;;;;0.10;0.10;;;15.30;99.90;;;;;;5008578;28;20045;-68
2022/05/21 08:21:41;;;;;;;0.10;0.10;;;15.30;99.90;;;;;;5012514;28;20070;-68
2022/05/21 08:26:58;;;;;;;0.55;0.55;;;15.40;99.90;;;;;;5018926;28;20049;-69
2022/05/21 08:29:31;;;;;;;0.15;0.15;;;15.40;99.90;;;;;;5012720;28;20050;-69
2022/05/21 08:31:58;;;;;;;0.05;0.05;;;15.50;99.90;;;;;;5013877;28;20054;-68
2022/05/21 08:34:25;;;;;;;0.10;0.10;;;15.60;99.90;;;;;;5025310;28;20094;-68
2022/05/21 08:36:51;;;;;;;3.17;0.80;;;15.60;99.90;;;;;;5016229;28;20091;-68
2022/05/21 08:39:17;;;;;;;0.90;0.75;;;15.60;99.90;;;;;;5016434;28;20133;-69
2022/05/21 08:41:51;;;;;;;0.00;0.00;;;15.80;99.90;;;;;;5022098;28;20084;-68
2022/05/21 08:44:34;;;;;;;0.00;0.00;;;15.80;99.90;;;;;;5021580;28;20973;-69
2022/05/21 08:47:27;;;;;;;0.00;0.00;;;15.70;99.90;;;;;;5016127;28;20034;-68
2022/05/21 08:50:01;;;;;;;4.38;2.55;;;15.70;99.90;;;;;;5009931;28;20113;-68
2022/05/21 08:52:33;;;;;;;0.20;0.20;;;15.70;99.90;;;;;;5010036;28;20052;-69
2022/05/21 08:55:00;;;;;;;3.45;2.58;;;15.80;99.90;;;;;;5009280;28;20053;-69
2022/05/21 08:57:33;;;;;;;0.30;0.30;;;15.90;99.90;;;;;;5006636;28;20042;-69
2022/05/21 09:00:07;;;;;;;3.35;0.95;;;16.00;99.90;;;;;;5007579;28;20046;-69
2022/05/21 09:02:35;;;;;;;0.35;0.22;;;16.00;99.90;;;;;;5011952;28;20444;-68
2022/05/21 09:05:06;;;;;;;0.63;0.63;;;15.80;99.90;;;;;;5008283;28;20126;-68
2022/05/21 09:07:58;;;;;;;0.00;0.00;;;15.90;99.90;;;;;;5015093;28;20384;-68
2022/05/21 09:10:53;;;;;;;0.30;0.30;;;15.90;99.90;;;;;;5028591;28;20434;-68
2022/05/21 09:13:33;;;;;;;1.55;1.45;;;16.00;99.90;;;;;;5015615;28;20443;-68
2022/05/21 09:18:44;;;;;;;0.10;0.10;;;16.20;99.90;;;;;;5044617;28;20136;-68
2022/05/21 09:21:22;;;;;;;0.20;0.20;;;16.20;99.90;;;;;;5011721;28;20532;-68
2022/05/21 09:24:00;;;;;;;0.65;0.65;;;16.30;99.90;;;;;;5011947;28;20045;-67
2022/05/21 09:26:30;;;;;;;2.30;0.90;;;16.30;99.90;;;;;;5028591;28;20492;-68
2022/05/21 09:29:19;;;;;;;0.08;0.08;;;16.30;99.90;;;;;;5026679;28;20076;-67
2022/05/21 09:31:45;;;;;;;1.05;1.05;;;16.30;99.90;;;;;;5025620;28;20060;-68
2022/05/21 09:34:23;;;;;;;2.25;1.95;;;16.20;99.90;;;;;;5010187;28;20049;-68
2022/05/21 09:36:50;;;;;;;0.70;0.70;;;16.20;99.90;;;;;;5011005;28;20038;-68
2022/05/21 09:39:31;;;;;;;0.00;0.00;;;16.30;99.90;;;;;;5018674;28;20038;-68
2022/05/21 09:45:24;;;;;;;0.10;0.10;;;16.70;99.90;;;;;;5017814;28;20045;-68
2022/05/21 09:48:12;;;;;;;0.63;0.35;;;17.00;99.90;;;;;;5020031;28;20678;-67
2022/05/21 09:50:58;;;;;;;0.50;0.50;;;17.00;99.90;;;;;;5008570;28;20107;-68
2022/05/21 09:53:34;;;;;;;0.03;0.03;;;17.10;99.90;;;;;;5007373;28;20087;-69
2022/05/21 09:56:20;;;;;;;0.00;0.00;;;16.90;99.90;;;;;;5008789;28;20160;-68
2022/05/21 09:58:48;;;;;;;2.90;1.38;;;17.10;99.90;;;;;;5020367;28;20050;-69
2022/05/21 10:01:38;;;;;;;0.43;0.40;;;17.30;99.90;;;;;;5010196;28;20061;-69
2022/05/21 10:04:39;;;;;;;30.88;0.95;;;17.10;99.90;;;;;;5010000;28;20135;-68
2022/05/21 10:07:10;;;;;;;3.83;0.80;;;17.40;99.90;;;;;;5008120;28;20049;-69
2022/05/21 10:12:37;;;;;;;1.33;0.70;;;17.50;99.90;;;;;;5010062;28;20410;-68
2022/05/21 10:15:19;;;;;;;1.77;0.52;;;17.70;99.90;;;;;;5015769;28;20038;-69
2022/05/21 10:17:59;;;;;;;0.95;0.95;;;17.80;99.90;;;;;;5026617;28;20119;-68
2022/05/21 10:20:34;;;;;;;0.00;0.00;;;17.90;99.90;;;;;;5012862;28;20042;-69
2022/05/21 10:23:26;;;;;;;0.00;0.00;;;18.30;99.90;;;;;;5009851;28;20514;-68
2022/05/21 10:26:07;;;;;;;0.30;0.30;;;18.50;99.90;;;;;;5022203;28;20065;-70
2022/05/21 10:28:48;;;;;;;1.95;1.10;;;18.40;99.90;;;;;;5017006;28;20045;-69
2022/05/21 10:31:31;;;;;;;0.28;0.28;;;18.00;99.90;;;;;;5025270;28;20172;-69
2022/05/21 10:34:22;;;;;;;0.23;0.23;;;17.80;99.90;;;;;;5018135;28;20121;-69
2022/05/21 10:36:59;;;;;;;0.10;0.10;;;17.60;99.90;;;;;;5023080;28;20320;-69
2022/05/21 10:39:51;;;;;;;0.20;0.20;;;17.50;99.90;;;;;;5009810;28;20085;-69
2022/05/21 10:42:47;;;;;;;0.10;0.10;;;17.80;99.90;;;;;;5011137;28;20045;-69
2022/05/21 10:45:28;;;;;;;0.00;0.00;;;18.00;99.90;;;;;;5007721;28;20526;-70
2022/05/21 10:48:12;;;;;;;0.05;0.05;;;18.10;99.90;;;;;;5018950;28;20382;-69
2022/05/21 10:50:57;;;;;;;1.52;1.17;;;18.40;99.90;;;;;;5007275;28;20693;-69
2022/05/21 10:53:45;;;;;;;1.33;1.02;;;18.30;99.90;;;;;;5008733;28;20060;-69
2022/05/21 10:56:44;;;;;;;0.20;0.20;;;18.30;99.90;;;;;;5028719;28;20050;-69
2022/05/21 10:59:47;;;;;;;0.63;0.63;;;18.30;99.90;;;;;;5019277;28;20038;-68
2022/05/21 11:02:44;;;;;;;1.05;1.05;;;18.10;99.90;;;;;;5023588;28;20054;-69
2022/05/21 11:05:29;;;;;;;3.15;0.35;;;18.60;99.90;;;;;;5027708;28;20107;-69
2022/05/21 11:08:15;;;;;;;0.15;0.15;;;18.40;99.90;;;;;;5011315;28;20050;-69
2022/05/21 11:10:55;;;;;;;0.43;0.43;;;18.60;99.90;;;;;;5007599;28;20058;-68
2022/05/21 11:13:27;;;;;;;0.00;0.00;;;18.60;99.90;;;;;;5007705;28;20073;-69
2022/05/21 11:15:56;;;;;;;0.17;0.17;;;18.10;99.90;;;;;;5011078;28;20075;-69
2022/05/21 11:18:39;;;;;;;0.13;0.13;;;18.20;99.90;;;;;;5026642;28;20057;-69
2022/05/21 11:21:19;;;;;;;0.00;0.00;;;17.90;99.90;;;;;;5024446;28;20430;-69
2022/05/21 11:23:57;;;;;;;0.00;0.00;;;18.10;99.90;;;;;;5015592;28;20053;-69
2022/05/21 11:26:37;;;;;;;0.30;0.30;;;18.30;99.90;;;;;;5021295;28;20456;-69
2022/05/21 11:29:32;;;;;;;1.15;0.70;;;18.80;99.90;;;;;;5011551;28;20056;-69
2022/05/21 11:37:42;;;;;;;0.15;0.15;;;19.50;99.90;;;;;;5011528;28;20081;-69
2022/05/21 11:40:09;;;;;;;0.03;0.03;;;19.70;99.90;;;;;;5008104;28;20543;-69
2022/05/21 11:42:36;;;;;;;0.00;0.00;;;19.30;99.90;;;;;;5008329;28;20045;-69
2022/05/21 11:45:22;;;;;;;0.17;0.17;;;19.20;99.90;;;;;;5016770;28;20053;-69
2022/05/21 11:48:15;;;;;;;1.65;1.17;;;19.60;99.90;;;;;;5027120;28;20049;-69
2022/05/21 11:50:41;;;;;;;0.10;0.10;;;19.60;99.90;;;;;;5021334;28;20060;-69
2022/05/21 11:53:28;;;;;;;0.22;0.22;;;20.10;99.90;;;;;;5008095;28;20046;-70
2022/05/21 11:56:08;;;;;;;0.00;0.00;;;20.20;99.90;;;;;;5006057;28;20042;-69
2022/05/21 11:58:58;;;;;;;1.05;1.00;;;20.00;99.90;;;;;;5008475;28;20445;-70
2022/05/21 12:01:36;;;;;;;1.80;1.70;;;19.90;99.90;;;;;;5023902;28;20073;-69
2022/05/21 12:04:01;;;;;;;4.72;2.45;;;20.10;99.90;;;;;;5025487;28;20041;-69
2022/05/21 12:06:37;;;;;;;0.00;0.00;;;20.10;99.90;;;;;;5008150;28;20195;-70
2022/05/21 12:09:25;;;;;;;0.47;0.43;;;20.20;99.90;;;;;;5020558;28;20056;-69
2022/05/21 12:11:52;;;;;;;0.30;0.30;;;20.00;99.90;;;;;;5019026;28;20050;-69
2022/05/21 12:14:27;;;;;;;0.28;0.28;;;20.10;99.90;;;;;;5019197;28;20050;-69
2022/05/21 12:16:56;;;;;;;0.13;0.13;;;20.30;99.90;;;;;;5021906;28;20104;-69
2022/05/21 12:19:44;;;;;;;0.28;0.28;;;20.20;99.90;;;;;;5015388;28;20561;-69
2022/05/21 12:22:10;;;;;;;0.10;0.10;;;20.40;99.90;;;;;;5005933;28;20099;-69
2022/05/21 12:24:41;;;;;;;0.55;0.43;;;20.50;99.90;;;;;;5006768;28;20064;-69
2022/05/21 12:27:22;;;;;;;0.00;0.00;;;20.80;99.90;;;;;;5007688;28;20042;-69
2022/05/21 12:29:56;;;;;;;13.05;0.75;;;20.80;99.90;;;;;;5013508;28;20076;-69
2022/05/21 12:32:26;;;;;;;0.13;0.13;;;20.90;99.90;;;;;;5020932;28;20052;-70
2022/05/21 12:35:26;;;;;;;0.00;0.00;;;20.40;99.90;;;;;;5024224;28;20121;-70
2022/05/21 12:38:02;;;;;;;0.08;0.08;;;20.00;99.90;;;;;;5025320;28;20050;-71
2022/05/21 12:40:40;;;;;;;0.00;0.00;;;19.80;99.90;;;;;;5015062;28;20060;-71
2022/05/21 12:43:14;;;;;;;0.10;0.10;;;20.20;99.90;;;;;;5011353;28;20045;-70
2022/05/21 12:45:44;;;;;;;2.60;0.77;;;20.60;99.90;;;;;;5028966;28;20476;-70
2022/05/21 12:48:13;;;;;;;0.00;0.00;;;21.00;99.90;;;;;;5019639;28;20038;-69
2022/05/21 12:50:53;;;;;;;0.00;0.00;;;21.10;99.90;;;;;;5010807;28;20046;-70
2022/05/21 12:53:32;;;;;;;0.05;0.05;;;21.10;99.90;;;;;;5012936;28;20552;-70
2022/05/21 12:56:15;;;;;;;0.00;0.00;;;21.10;99.90;;;;;;5019674;28;20133;-69
2022/05/21 12:58:40;;;;;;;0.37;0.37;;;21.10;99.90;;;;;;5011081;28;20046;-69
2022/05/21 13:01:06;;;;;;;0.20;0.20;;;21.30;99.90;;;;;;5011176;28;20104;-69
2022/05/21 13:03:35;;;;;;;0.73;0.15;;;20.80;99.90;;;;;;5014163;28;20100;-69
2022/05/21 13:06:09;;;;;;;0.00;0.00;;;20.90;99.90;;;;;;5011346;28;20075;-70
2022/05/21 13:08:39;;;;;;;0.00;0.00;;;20.40;99.90;;;;;;5009511;28;20129;-70
2022/05/21 13:11:16;;;;;;;0.00;0.00;;;21.10;99.90;;;;;;5015448;28;20088;-69
2022/05/21 13:13:45;;;;;;;0.55;0.47;;;21.30;99.90;;;;;;5010284;28;20064;-70
2022/05/21 13:16:15;;;;;;;0.20;0.20;;;20.80;99.90;;;;;;5023432;28;20049;-70
2022/05/21 13:19:05;;;;;;;0.08;0.08;;;20.30;99.90;;;;;;5016108;28;20042;-69
2022/05/21 13:21:44;;;;;;;0.10;0.10;;;20.30;99.90;;;;;;5020175;28;20128;-71
2022/05/21 13:24:41;;;;;;;0.30;0.25;;;20.20;99.90;;;;;;5020223;28;20064;-69
2022/05/21 13:27:08;;;;;;;0.20;0.20;;;20.10;99.90;;;;;;5015028;28;20094;-69
2022/05/21 13:29:33;;;;;;;0.00;0.00;;;20.20;99.90;;;;;;5020080;28;20401;-69
2022/05/21 13:32:21;;;;;;;29.35;0.68;;;19.70;99.90;;;;;;5010349;28;20050;-70
2022/05/21 13:34:47;;;;;;;0.93;0.35;;;19.40;99.90;;;;;;5024403;28;20058;-69